createdAt,value
2019-04-11T00:01:01.772Z,26.64
2019-04-11T00:03:35.574Z,26.82
2019-04-11T00:06:29.745Z,27.14
2019-04-11T00:09:05.888Z,27.06
2019-04-11T00:11:39.893Z,27.14
2019-04-11T00:14:14.294Z,26.94
2019-04-11T00:16:47.692Z,26.33
2019-04-11T00:19:21.395Z,26.68
2019-04-11T00:21:55.253Z,26.68
2019-04-11T00:24:29.219Z,26.58
2019-04-11T00:27:02.912Z,26.30
2019-04-11T00:29:36.667Z,25.03
2019-04-11T00:32:11.935Z,25.42
2019-04-11T00:34:44.956Z,25.52
2019-04-11T00:37:19.063Z,25.11
2019-04-11T00:39:52.745Z,25.26
2019-04-11T00:42:26.351Z,24.02
2019-04-11T00:45:03.251Z,24.24
2019-04-11T00:47:38.200Z,24.27
2019-04-11T00:50:12.745Z,23.25
2019-04-11T00:52:49.420Z,23.95
2019-04-11T00:55:23.758Z,23.12
2019-04-11T00:57:58.754Z,22.33
2019-04-11T01:00:33.258Z,22.50
2019-04-11T01:03:07.140Z,22.30
2019-04-11T01:05:41.442Z,22.56
2019-04-11T01:08:15.716Z,21.16
2019-04-11T01:10:49.753Z,21.02
2019-04-11T01:13:23.815Z,20.01
2019-04-11T01:15:57.914Z,19.20
2019-04-11T01:18:31.519Z,19.38
2019-04-11T01:21:06.139Z,19.50
2019-04-11T01:23:40.149Z,19.87
2019-04-11T01:26:15.405Z,19.56
2019-04-11T01:28:49.464Z,19.64
2019-04-11T01:31:23.184Z,19.07
2019-04-11T01:33:57.070Z,18.62
2019-04-11T01:36:33.253Z,19.19
2019-04-11T01:39:08.498Z,18.50
2019-04-11T01:41:42.633Z,18.14
2019-04-11T01:44:16.521Z,18.21
2019-04-11T01:46:50.689Z,18.16
2019-04-11T01:49:26.130Z,18.14
2019-04-11T01:52:00.163Z,17.72
2019-04-11T01:54:33.982Z,17.43
2019-04-11T01:57:07.930Z,17.14
2019-04-11T01:59:43.709Z,16.90
2019-04-11T02:02:19.100Z,16.76
2019-04-11T02:04:52.785Z,17.50
2019-04-11T02:07:26.831Z,16.42
2019-04-11T02:10:00.605Z,16.47
2019-04-11T02:12:35.915Z,16.26
2019-04-11T02:15:10.481Z,16.08
2019-04-11T02:17:44.095Z,15.39
2019-04-11T02:20:19.526Z,15.90
2019-04-11T02:22:53.056Z,15.32
2019-04-11T02:25:28.158Z,14.95
2019-04-11T02:28:01.528Z,15.16
2019-04-11T02:30:36.278Z,14.73
2019-04-11T02:33:11.751Z,16.16
2019-04-11T02:35:48.991Z,15.09
2019-04-11T02:38:23.290Z,15.37
2019-04-11T02:40:57.421Z,14.64
2019-04-11T02:43:34.090Z,16.20
2019-04-11T02:46:16.896Z,15.14
2019-04-11T02:48:44.930Z,15.08
2019-04-11T02:51:20.461Z,13.83
2019-04-11T02:53:54.972Z,13.93
2019-04-11T02:56:28.814Z,13.57
2019-04-11T02:59:04.491Z,14.25
2019-04-11T03:01:38.007Z,13.86
2019-04-11T03:04:12.896Z,13.93
2019-04-11T03:06:47.809Z,14.21
2019-04-11T03:09:22.043Z,15.19
2019-04-11T03:11:58.930Z,14.08
2019-04-11T03:14:46.529Z,13.99
2019-04-11T03:17:14.984Z,14.73
2019-04-11T03:19:59.335Z,15.06
2019-04-11T03:22:20.252Z,13.50
2019-04-11T03:24:55.407Z,13.41
2019-04-11T03:27:30.528Z,13.02
2019-04-11T03:30:07.852Z,14.03
2019-04-11T03:38:19.481Z,13.23
2019-04-11T03:40:55.273Z,13.90
2019-04-11T03:43:24.328Z,12.58
2019-04-11T03:46:03.983Z,12.57
2019-04-11T03:48:33.790Z,11.81
2019-04-11T03:50:57.152Z,11.76
2019-04-11T03:53:34.289Z,12.08
2019-04-11T03:56:09.645Z,12.02
2019-04-11T03:58:43.773Z,12.17
2019-04-11T04:01:18.310Z,12.17
2019-04-11T04:03:54.231Z,11.57
2019-04-11T04:06:30.901Z,11.95
2019-04-11T04:09:04.753Z,12.54
2019-04-11T04:11:40.740Z,12.77
2019-04-11T04:14:15.006Z,12.77
2019-04-11T04:16:51.074Z,13.94
2019-04-11T04:19:25.161Z,13.53
2019-04-11T04:21:59.616Z,14.19
2019-04-11T04:24:37.874Z,13.75
2019-04-11T04:27:23.080Z,13.52
2019-04-11T04:29:57.639Z,13.64
2019-04-11T04:32:30.452Z,13.92
2019-04-11T04:35:10.410Z,13.46
2019-04-11T04:37:43.092Z,13.27
2019-04-11T04:40:31.579Z,13.32
2019-04-11T04:42:55.339Z,13.23
2019-04-11T04:45:27.630Z,12.79
2019-04-11T04:48:06.878Z,12.80
2019-04-11T04:50:36.699Z,12.47
2019-04-11T04:53:11.357Z,12.36
2019-04-11T04:55:47.671Z,11.52
2019-04-11T04:58:22.130Z,10.02
2019-04-11T05:00:56.719Z,10.09
2019-04-11T05:03:34.266Z,10.44
2019-04-11T05:06:07.917Z,10.22
2019-04-11T05:08:49.194Z,10.47
2019-04-11T05:11:26.214Z,10.76
2019-04-11T05:14:04.917Z,10.63
2019-04-11T05:16:38.420Z,11.39
2019-04-11T05:19:12.851Z,10.52
2019-04-11T05:21:47.745Z,9.99
2019-04-11T05:24:23.231Z,10.49
2019-04-11T05:26:57.816Z,10.24
2019-04-11T05:29:31.684Z,10.58
2019-04-11T05:32:05.423Z,11.32
2019-04-11T05:34:39.344Z,10.68
2019-04-11T05:37:15.233Z,10.12
2019-04-11T05:39:50.464Z,10.52
2019-04-11T05:42:26.524Z,10.07
2019-04-11T05:44:59.134Z,10.03
2019-04-11T05:47:33.352Z,10.03
2019-04-11T05:50:11.382Z,9.63
2019-04-11T05:52:45.114Z,9.75
2019-04-11T05:55:20.243Z,10.34
2019-04-11T05:57:54.406Z,10.02
2019-04-11T06:00:30.313Z,10.22
2019-04-11T06:03:04.174Z,10.05
2019-04-11T06:05:39.050Z,9.98
2019-04-11T06:08:25.065Z,9.45
2019-04-11T06:10:54.709Z,9.99
2019-04-11T06:13:28.799Z,10.06
2019-04-11T06:16:02.956Z,9.87
2019-04-11T06:18:43.068Z,9.76
2019-04-11T06:21:13.992Z,9.58
2019-04-11T06:23:54.458Z,9.09
2019-04-11T06:26:27.992Z,9.46
2019-04-11T06:29:14.726Z,9.47
2019-04-11T06:31:38.589Z,9.58
2019-04-11T06:34:13.322Z,9.97
2019-04-11T06:36:48.135Z,9.88
2019-04-11T06:39:21.521Z,10.05
2019-04-11T06:41:55.216Z,9.78
2019-04-11T06:44:29.972Z,9.56
2019-04-11T06:47:05.383Z,9.51
2019-04-11T06:49:46.984Z,9.51
2019-04-11T06:52:20.954Z,9.74
2019-04-11T06:54:54.596Z,9.87
2019-04-11T06:57:29.904Z,9.46
2019-04-11T07:00:05.106Z,9.52
2019-04-11T07:02:38.937Z,9.98
2019-04-11T07:05:13.999Z,9.67
2019-04-11T07:07:47.725Z,9.64
2019-04-11T07:10:24.581Z,9.94
2019-04-11T07:12:59.359Z,9.68
2019-04-11T07:15:40.210Z,9.70
2019-04-11T07:18:14.124Z,9.83
2019-04-11T07:20:47.655Z,9.48
2019-04-11T07:23:24.246Z,9.63
2019-04-11T07:25:58.258Z,9.32
2019-04-11T07:28:31.883Z,9.66
2019-04-11T07:31:06.785Z,9.97
2019-04-11T07:33:40.932Z,9.63
2019-04-11T07:36:14.825Z,9.54
2019-04-11T07:38:50.608Z,9.91
2019-04-11T07:41:23.937Z,9.42
2019-04-11T07:43:58.527Z,9.49
2019-04-11T07:46:32.866Z,9.47
2019-04-11T07:49:08.039Z,9.33
2019-04-11T07:51:42.998Z,9.67
2019-04-11T07:54:17.952Z,9.54
2019-04-11T07:56:53.104Z,8.74
2019-04-11T07:59:27.171Z,9.16
2019-04-11T08:02:01.584Z,9.37
2019-04-11T08:04:40.806Z,8.98
2019-04-11T08:07:15.402Z,8.56
2019-04-11T08:09:48.914Z,8.90
2019-04-11T08:12:24.041Z,9.24
2019-04-11T08:14:59.260Z,9.48
2019-04-11T08:17:37.686Z,9.50
2019-04-11T08:20:08.908Z,9.04
2019-04-11T08:22:45.455Z,9.50
2019-04-11T08:25:19.407Z,9.37
2019-04-11T08:27:59.965Z,9.46
2019-04-11T08:30:29.389Z,8.93
2019-04-11T08:33:02.911Z,9.03
2019-04-11T08:35:37.349Z,9.81
2019-04-11T08:38:13.991Z,9.59
2019-04-11T08:40:49.121Z,9.40
2019-04-11T08:43:23.479Z,9.49
2019-04-11T08:45:58.236Z,9.91
2019-04-11T08:48:32.966Z,9.98
2019-04-11T08:51:08.096Z,10.29
2019-04-11T08:53:42.734Z,10.55
2019-04-11T08:56:16.788Z,10.01
2019-04-11T08:59:18.922Z,10.25
2019-04-11T09:01:53.948Z,11.14
2019-04-11T09:04:27.686Z,10.43
2019-04-11T09:07:05.963Z,11.14
2019-04-11T09:09:40.627Z,10.26
2019-04-11T09:12:15.235Z,9.96
2019-04-11T09:14:50.849Z,11.90
2019-04-11T09:17:26.156Z,11.07
2019-04-11T09:20:00.133Z,11.07
2019-04-11T09:22:33.869Z,13.18
2019-04-11T09:25:08.981Z,11.54
2019-04-11T09:27:44.750Z,10.75
2019-04-11T09:30:19.059Z,11.17
2019-04-11T09:32:54.531Z,13.44
2019-04-11T09:35:28.183Z,12.51
2019-04-11T09:38:02.195Z,11.46
2019-04-11T09:40:36.699Z,13.55
2019-04-11T09:43:11.876Z,12.34
2019-04-11T09:45:45.793Z,11.33
2019-04-11T09:48:20.776Z,12.91
2019-04-11T09:50:54.738Z,11.69
2019-04-11T09:53:28.898Z,11.59
2019-04-11T09:56:04.851Z,11.73
2019-04-11T09:58:39.907Z,12.64
2019-04-11T10:01:20.287Z,13.33
2019-04-11T10:03:54.755Z,13.37
2019-04-11T10:06:30.144Z,14.01
2019-04-11T10:09:04.385Z,14.48
2019-04-11T10:11:40.344Z,14.33
2019-04-11T10:14:16.060Z,13.76
2019-04-11T10:16:50.601Z,13.90
2019-04-11T10:19:25.124Z,14.26
2019-04-11T10:22:02.810Z,14.38
2019-04-11T10:24:36.746Z,14.47
2019-04-11T10:27:12.197Z,14.40
2019-04-11T10:29:46.332Z,14.59
2019-04-11T10:32:21.393Z,14.27
2019-04-11T10:34:56.072Z,13.97
2019-04-11T10:37:31.729Z,14.88
2019-04-11T10:40:10.117Z,14.94
2019-04-11T10:42:46.561Z,15.12
2019-04-11T10:45:38.507Z,15.31
2019-04-11T10:48:14.078Z,15.95
2019-04-11T10:50:52.672Z,16.60
2019-04-11T10:53:33.946Z,15.39
2019-04-11T10:56:14.020Z,16.13
2019-04-11T10:58:51.240Z,16.33
2019-04-11T11:01:26.685Z,16.11
2019-04-11T11:04:01.234Z,16.36
2019-04-11T11:06:37.932Z,16.20
2019-04-11T11:09:19.784Z,16.15
2019-04-11T11:11:56.792Z,15.89
2019-04-11T11:14:34.433Z,16.53
2019-04-11T11:17:09.238Z,16.61
2019-04-11T11:19:57.331Z,16.79
2019-04-11T11:22:23.641Z,16.97
2019-04-11T11:25:00.132Z,16.45
2019-04-11T11:27:35.300Z,16.88
2019-04-11T11:30:10.815Z,16.35
2019-04-11T11:32:45.562Z,16.93
2019-04-11T11:35:27.054Z,16.77
2019-04-11T11:37:55.852Z,17.44
2019-04-11T11:40:32.067Z,17.06
2019-04-11T11:43:06.634Z,17.06
2019-04-11T11:45:41.645Z,18.13
2019-04-11T11:48:19.322Z,17.92
2019-04-11T11:50:52.852Z,18.35
2019-04-11T11:53:29.824Z,18.22
2019-04-11T11:56:10.593Z,18.69
2019-04-11T11:58:55.393Z,18.73
2019-04-11T12:01:31.673Z,17.67
2019-04-11T12:04:13.053Z,18.29
2019-04-11T12:07:00.823Z,18.27
2019-04-11T12:09:32.635Z,18.91
2019-04-11T12:12:09.524Z,19.04
2019-04-11T12:14:59.281Z,19.08
2019-04-11T12:17:24.982Z,19.25
2019-04-11T12:20:11.040Z,19.25
2019-04-11T12:22:42.226Z,19.72
2019-04-11T12:25:23.193Z,19.74
2019-04-11T12:28:00.818Z,20.24
2019-04-11T12:30:37.491Z,20.14
2019-04-11T12:33:14.068Z,20.20
2019-04-11T12:35:50.739Z,20.46
2019-04-11T12:38:26.139Z,21.09
2019-04-11T12:41:02.631Z,21.09
2019-04-11T12:43:42.614Z,21.26
2019-04-11T12:46:29.473Z,22.09
2019-04-11T12:48:55.716Z,21.61
2019-04-11T12:51:30.080Z,21.86
2019-04-11T12:54:10.107Z,21.06
2019-04-11T12:56:46.900Z,21.56
2019-04-11T12:59:25.618Z,21.41
2019-04-11T13:02:01.747Z,21.46
2019-04-11T13:04:37.162Z,21.43
2019-04-11T13:07:12.572Z,23.37
2019-04-11T13:09:48.067Z,22.10
2019-04-11T13:12:25.001Z,21.85
2019-04-11T13:14:59.745Z,22.26
2019-04-11T13:17:34.670Z,22.61
2019-04-11T13:20:12.110Z,22.59
2019-04-11T13:22:50.095Z,23.19
2019-04-11T13:25:25.878Z,23.34
2019-04-11T13:28:00.881Z,23.06
2019-04-11T13:30:38.681Z,23.64
2019-04-11T13:33:15.360Z,23.08
2019-04-11T13:35:50.202Z,22.71
2019-04-11T13:38:26.128Z,22.48
2019-04-11T13:41:01.831Z,23.43
2019-04-11T13:43:37.446Z,23.33
2019-04-11T13:46:14.948Z,23.42
2019-04-11T13:48:50.334Z,23.20
2019-04-11T13:51:25.973Z,23.62
2019-04-11T13:54:01.747Z,22.96
2019-04-11T13:56:36.334Z,22.85
2019-04-11T13:59:12.384Z,22.57
2019-04-11T14:01:47.376Z,22.82
2019-04-11T14:04:23.829Z,22.65
2019-04-11T14:07:00.152Z,22.68
2019-04-11T14:09:35.207Z,22.62
2019-04-11T14:12:11.783Z,22.79
2019-04-11T14:14:46.064Z,23.11
2019-04-11T14:17:21.765Z,22.87
2019-04-11T14:19:55.454Z,23.04
2019-04-11T14:22:29.380Z,22.80
2019-04-11T14:25:04.003Z,23.37
2019-04-11T14:27:44.674Z,23.15
2019-04-11T14:30:25.435Z,23.69
2019-04-11T14:33:02.001Z,23.05
2019-04-11T14:35:37.855Z,23.98
2019-04-11T14:38:11.904Z,25.18
2019-04-11T14:40:47.786Z,24.85
2019-04-11T14:43:28.739Z,25.19
2019-04-11T14:46:06.910Z,24.63
2019-04-11T14:48:45.437Z,25.17
2019-04-11T14:51:20.815Z,25.02
2019-04-11T14:53:54.787Z,25.05
2019-04-11T14:56:30.737Z,24.55
2019-04-11T14:59:04.462Z,24.74
2019-04-11T15:01:38.361Z,25.50
2019-04-11T15:04:13.613Z,25.54
2019-04-11T15:06:46.952Z,25.87
2019-04-11T15:09:20.512Z,26.18
2019-04-11T15:11:55.013Z,26.73
2019-04-11T15:14:28.204Z,26.38
2019-04-11T15:17:02.137Z,26.66
2019-04-11T15:19:38.959Z,27.03
2019-04-11T15:22:12.632Z,27.39
2019-04-11T15:24:46.286Z,27.53
2019-04-11T15:27:21.841Z,27.46
2019-04-11T15:29:55.056Z,27.53
2019-04-11T15:32:28.682Z,27.73
2019-04-11T15:35:02.727Z,28.28
2019-04-11T15:37:36.506Z,28.65
2019-04-11T15:40:10.989Z,29.15
2019-04-11T15:42:44.903Z,28.69
2019-04-11T15:45:18.321Z,29.08
2019-04-11T15:47:52.590Z,29.16
2019-04-11T15:50:30.487Z,29.41
2019-04-11T15:53:04.678Z,29.54
2019-04-11T15:55:37.709Z,30.75
2019-04-11T15:58:13.780Z,30.58
2019-04-11T16:00:48.683Z,30.84
2019-04-11T16:03:24.532Z,31.32
2019-04-11T16:06:01.596Z,31.09
2019-04-11T16:08:33.907Z,31.35
2019-04-11T16:11:12.063Z,31.90
2019-04-11T16:13:42.633Z,32.00
2019-04-11T16:16:16.615Z,32.17
2019-04-11T16:18:50.397Z,32.14
2019-04-11T16:21:24.323Z,33.01
2019-04-11T16:23:58.572Z,33.33
2019-04-11T16:26:32.337Z,33.64
2019-04-11T16:29:08.341Z,33.63
2019-04-11T16:31:40.804Z,33.86
2019-04-11T16:34:16.134Z,34.01
2019-04-11T16:36:49.045Z,34.68
2019-04-11T16:39:22.950Z,34.97
2019-04-11T16:41:57.783Z,35.25
2019-04-11T16:44:31.457Z,35.25
2019-04-11T16:47:08.237Z,35.50
2019-04-11T16:49:42.256Z,35.57
2019-04-11T16:52:16.272Z,36.34
2019-04-11T16:54:49.958Z,36.49
2019-04-11T16:57:23.389Z,37.58
2019-04-11T16:59:58.446Z,37.73
2019-04-11T17:02:32.082Z,37.65
2019-04-11T17:05:06.894Z,37.98
2019-04-11T17:07:41.652Z,37.89
2019-04-11T17:10:15.166Z,39.15
2019-04-11T17:12:48.668Z,40.01
2019-04-11T17:15:22.784Z,39.77
2019-04-11T17:17:56.489Z,39.77
2019-04-11T17:20:29.943Z,40.24
2019-04-11T17:23:03.642Z,41.58
2019-04-11T17:25:37.350Z,41.31
2019-04-11T17:28:11.174Z,41.08
2019-04-11T17:30:44.811Z,42.60
2019-04-11T17:33:18.475Z,43.33
2019-04-11T17:35:52.332Z,43.50
2019-04-11T17:38:25.629Z,42.99
2019-04-11T17:40:59.068Z,43.85
2019-04-11T17:43:32.655Z,43.01
2019-04-11T17:46:06.103Z,43.54
2019-04-11T17:48:42.729Z,43.39
2019-04-11T17:51:16.433Z,43.37
2019-04-11T17:53:50.109Z,43.04
2019-04-11T17:56:25.348Z,43.25
2019-04-11T17:58:58.689Z,43.50
2019-04-11T18:01:33.529Z,43.33
2019-04-11T18:04:08.864Z,43.42
2019-04-11T18:06:46.956Z,44.49
2019-04-11T18:09:20.465Z,44.58
2019-04-11T18:11:55.926Z,44.27
2019-04-11T18:14:30.953Z,44.00
2019-04-11T18:17:04.773Z,44.08
2019-04-11T18:19:39.154Z,45.06
2019-04-11T18:22:14.354Z,45.26
2019-04-11T18:24:50.026Z,44.31
2019-04-11T18:27:23.265Z,44.62
2019-04-11T18:29:56.846Z,45.80
2019-04-11T18:32:31.054Z,46.16
2019-04-11T18:35:04.857Z,46.16
2019-04-11T18:37:38.772Z,45.44
2019-04-11T18:40:14.950Z,45.91
2019-04-11T18:42:50.069Z,46.84
2019-04-11T18:45:23.644Z,46.93
2019-04-11T18:47:57.145Z,46.87
2019-04-11T18:50:32.494Z,46.70
2019-04-11T18:53:06.181Z,47.02
2019-04-11T18:55:39.843Z,47.29
2019-04-11T18:58:13.519Z,47.74
2019-04-11T19:00:47.435Z,47.65
2019-04-11T19:03:21.206Z,47.77
2019-04-11T19:05:56.865Z,47.50
2019-04-11T19:08:30.729Z,48.17
2019-04-11T19:11:04.481Z,48.14
2019-04-11T19:13:37.967Z,48.49
2019-04-11T19:16:13.802Z,48.49
2019-04-11T19:18:47.790Z,47.68
2019-04-11T19:21:21.615Z,47.69
2019-04-11T19:23:55.842Z,48.36
2019-04-11T19:26:29.289Z,48.58
2019-04-11T19:29:03.060Z,48.46
2019-04-11T19:31:36.775Z,48.69
2019-04-11T19:34:10.275Z,48.56
2019-04-11T19:36:43.816Z,49.39
2019-04-11T19:39:17.520Z,49.08
2019-04-11T19:41:51.235Z,48.78
2019-04-11T19:44:25.045Z,48.69
2019-04-11T19:47:01.684Z,48.75
2019-04-11T19:49:35.400Z,49.40
2019-04-11T19:52:09.104Z,49.17
2019-04-11T19:54:42.665Z,49.23
2019-04-11T19:57:16.148Z,49.43
2019-04-11T19:59:49.779Z,48.83
2019-04-11T20:02:24.055Z,48.74
2019-04-11T20:04:57.828Z,49.75
2019-04-11T20:07:32.342Z,49.08
2019-04-11T20:10:06.715Z,49.17
2019-04-11T20:12:40.363Z,49.75
2019-04-11T20:15:14.085Z,49.80
2019-04-11T20:17:51.897Z,49.80
2019-04-11T20:20:23.783Z,49.65
2019-04-11T20:22:59.253Z,48.93
2019-04-11T20:25:32.252Z,49.38
2019-04-11T20:28:06.151Z,49.66
2019-04-11T20:30:39.662Z,49.24
2019-04-11T20:33:13.307Z,49.99
2019-04-11T20:35:48.665Z,50.05
2019-04-11T20:38:22.435Z,50.72
2019-04-11T20:40:56.701Z,50.57
2019-04-11T20:43:30.706Z,50.91
2019-04-11T20:46:04.105Z,50.47
2019-04-11T20:48:37.439Z,50.55
2019-04-11T20:51:11.083Z,51.10
2019-04-11T20:53:44.752Z,51.28
2019-04-11T20:56:24.110Z,50.73
2019-04-11T20:58:54.008Z,50.64
2019-04-11T21:01:27.448Z,50.33
2019-04-11T21:04:04.450Z,50.58
2019-04-11T21:06:35.876Z,50.29
2019-04-11T21:09:10.622Z,50.53
2019-04-11T21:11:44.344Z,50.41
2019-04-11T21:14:17.874Z,51.28
2019-04-11T21:16:55.492Z,51.31
2019-04-11T21:19:29.489Z,51.94
2019-04-11T21:22:05.474Z,53.60
2019-04-11T21:24:39.259Z,52.97
2019-04-11T21:27:12.652Z,52.30
2019-04-11T21:29:46.344Z,50.85
2019-04-11T21:32:19.926Z,53.75
2019-04-11T21:34:53.839Z,50.84
2019-04-11T21:37:30.091Z,51.05
2019-04-11T21:40:02.722Z,50.90
2019-04-11T21:42:37.023Z,50.84
2019-04-11T21:45:13.189Z,50.81
2019-04-11T21:47:48.507Z,50.36
2019-04-11T21:50:23.657Z,50.48
2019-04-11T21:52:57.368Z,50.24
2019-04-11T21:55:32.521Z,50.01
2019-04-11T21:58:06.242Z,49.31
2019-04-11T22:00:42.698Z,49.39
2019-04-11T22:03:16.738Z,49.15
2019-04-11T22:06:03.922Z,48.51
2019-04-11T22:08:39.371Z,48.11
2019-04-11T22:11:13.035Z,47.93
2019-04-11T22:13:48.488Z,43.78
2019-04-11T22:16:23.671Z,43.38
2019-04-11T22:18:57.383Z,41.90
2019-04-11T22:21:31.023Z,40.75
2019-04-11T22:24:04.967Z,37.50
2019-04-11T22:26:40.354Z,34.75
2019-04-11T22:29:16.136Z,33.00
2019-04-11T22:31:50.653Z,30.67
2019-04-11T22:34:26.028Z,29.72
2019-04-11T22:37:00.011Z,28.79
2019-04-11T22:39:35.445Z,27.83
2019-04-11T22:42:09.534Z,26.83
2019-04-11T22:44:42.966Z,25.77
2019-04-11T22:47:16.629Z,25.63
2019-04-11T22:49:52.640Z,24.64
2019-04-11T22:52:26.452Z,25.03
2019-04-11T22:55:00.226Z,25.77
2019-04-11T22:57:34.054Z,26.20
2019-04-11T23:00:09.102Z,26.86
2019-04-11T23:02:44.924Z,27.13
2019-04-11T23:05:17.979Z,27.24
2019-04-11T23:07:51.985Z,27.13
2019-04-11T23:10:25.756Z,26.69
2019-04-11T23:12:59.584Z,27.38
2019-04-11T23:15:33.220Z,27.04
2019-04-11T23:18:06.662Z,27.49
2019-04-11T23:20:43.799Z,27.64
2019-04-11T23:23:15.208Z,27.92
2019-04-11T23:25:48.717Z,28.21
2019-04-11T23:28:22.586Z,28.38
2019-04-11T23:30:56.119Z,28.54
2019-04-11T23:33:29.590Z,28.43
2019-04-11T23:36:03.520Z,28.51
2019-04-11T23:38:36.983Z,28.85
2019-04-11T23:41:10.649Z,29.35
2019-04-11T23:43:44.082Z,28.95
2019-04-11T23:46:18.947Z,29.21
2019-04-11T23:48:55.552Z,28.68
2019-04-11T23:51:27.369Z,28.68
2019-04-11T23:54:02.168Z,28.57
2019-04-11T23:56:35.567Z,28.14
2019-04-11T23:59:09.274Z,27.62
